createdAt,value
2022-10-19T00:03:43.319Z,94202.22
2022-10-19T00:08:47.159Z,94198.59
2022-10-19T00:13:50.784Z,94195.78
2022-10-19T00:18:57.752Z,94194.13
2022-10-19T00:24:01.449Z,94182.41
2022-10-19T00:29:06.536Z,94176.44
2022-10-19T00:34:10.104Z,94165.03
2022-10-19T00:39:16.501Z,94164.97
2022-10-19T00:44:19.849Z,94166.03
2022-10-19T00:49:30.156Z,94163.25
2022-10-19T00:54:34.502Z,94157.22
2022-10-19T00:59:39.481Z,94160.19
2022-10-19T01:04:49.130Z,94156.59
2022-10-19T01:09:53.183Z,94155.03
2022-10-19T01:15:28.505Z,94150.06
2022-10-19T01:20:53.412Z,94156.88
2022-10-19T01:26:15.398Z,94144.56
2022-10-19T01:31:26.164Z,94142.38
2022-10-19T01:37:03.226Z,94137.56
2022-10-19T01:42:25.628Z,94133.47
2022-10-19T01:47:45.744Z,94129.41
2022-10-19T01:52:52.844Z,94121.84
2022-10-19T01:58:02.665Z,94107.63
2022-10-19T02:03:07.846Z,94104.03
2022-10-19T02:08:48.101Z,94106.41
2022-10-19T02:14:00.128Z,94095.28
2022-10-19T02:19:05.893Z,94096.00
2022-10-19T02:24:09.276Z,94100.28
2022-10-19T02:29:15.586Z,94099.84
2022-10-19T02:34:18.858Z,94087.97
2022-10-19T02:39:22.330Z,94091.44
2022-10-19T02:44:43.248Z,94093.66
2022-10-19T02:49:48.353Z,94090.50
2022-10-19T02:54:51.908Z,94086.56
2022-10-19T02:59:54.829Z,94091.81
2022-10-19T03:04:58.372Z,94089.47
2022-10-19T03:10:01.805Z,94089.03
2022-10-19T03:15:06.109Z,94086.44
2022-10-19T03:20:10.699Z,94086.72
2022-10-19T03:25:14.700Z,94079.78
2022-10-19T03:30:17.973Z,94082.41
2022-10-19T03:35:20.914Z,94085.13
2022-10-19T03:40:24.079Z,94086.00
2022-10-19T03:45:27.124Z,94081.53
2022-10-19T03:50:30.491Z,94081.88
2022-10-19T03:55:34.128Z,94077.41
2022-10-19T04:00:37.611Z,94082.06
2022-10-19T04:05:41.139Z,94076.09
2022-10-19T04:10:45.233Z,94082.69
2022-10-19T04:15:48.958Z,94073.13
2022-10-19T04:21:06.365Z,94067.69
2022-10-19T04:26:10.286Z,94066.81
2022-10-19T04:31:13.843Z,94076.28
2022-10-19T04:36:17.742Z,94071.63
2022-10-19T04:41:22.678Z,94070.13
2022-10-19T04:46:27.299Z,94074.63
2022-10-19T04:51:30.829Z,94059.53
2022-10-19T04:56:34.740Z,94058.53
2022-10-19T05:01:40.402Z,94054.59
2022-10-19T05:06:45.251Z,94054.69
2022-10-19T05:11:52.327Z,94048.41
2022-10-19T05:16:55.774Z,94040.13
2022-10-19T05:21:59.269Z,94053.97
2022-10-19T05:27:02.250Z,94046.97
2022-10-19T05:32:06.586Z,94038.69
2022-10-19T05:37:09.606Z,94029.22
2022-10-19T05:42:13.904Z,94035.84
2022-10-19T05:47:16.835Z,94037.91
2022-10-19T05:52:23.579Z,94029.28
2022-10-19T05:57:26.620Z,94048.25
2022-10-19T06:02:30.658Z,94044.13
2022-10-19T06:07:35.231Z,94059.78
2022-10-19T06:12:39.135Z,94052.53
2022-10-19T06:17:42.769Z,94041.75
2022-10-19T06:22:45.823Z,94036.69
2022-10-19T06:27:49.647Z,94025.00
2022-10-19T06:32:53.093Z,94035.97
2022-10-19T06:37:58.656Z,94023.34
2022-10-19T06:43:01.756Z,94032.66
2022-10-19T06:48:07.797Z,94041.81
2022-10-19T06:53:12.839Z,94047.41
2022-10-19T06:58:16.503Z,94038.03
2022-10-19T07:03:19.618Z,94044.69
2022-10-19T07:08:24.200Z,94048.34
2022-10-19T07:13:29.340Z,94051.34
2022-10-19T07:18:32.863Z,94051.16
2022-10-19T07:23:38.266Z,94044.09
2022-10-19T07:28:43.588Z,94057.97
2022-10-19T07:33:52.376Z,94047.34
2022-10-19T07:38:56.087Z,94052.06
2022-10-19T07:43:59.938Z,94041.84
2022-10-19T07:49:06.643Z,94043.56
2022-10-19T07:54:09.926Z,94050.72
2022-10-19T07:59:16.729Z,94048.53
2022-10-19T08:09:53.715Z,94043.13
2022-10-19T08:14:57.901Z,94044.88
2022-10-19T08:20:01.705Z,94043.47
2022-10-19T08:25:06.172Z,94042.63
2022-10-19T08:30:10.208Z,94052.25
2022-10-19T08:35:14.387Z,94048.94
2022-10-19T08:40:23.389Z,94056.41
2022-10-19T08:45:33.961Z,94044.38
2022-10-19T08:50:40.299Z,94047.19
2022-10-19T08:56:08.738Z,94054.50
2022-10-19T09:01:24.822Z,94052.16
2022-10-19T09:07:05.892Z,94060.94
2022-10-19T09:12:15.517Z,94060.28
2022-10-19T09:17:19.151Z,94061.56
2022-10-19T09:22:35.637Z,94055.84
2022-10-19T09:27:42.896Z,94067.41
2022-10-19T09:32:47.451Z,94059.81
2022-10-19T09:37:52.220Z,94063.00
2022-10-19T09:43:03.065Z,94055.44
2022-10-19T09:48:18.578Z,94054.53
2022-10-19T09:53:23.065Z,94046.75
2022-10-19T09:58:32.891Z,94047.16
2022-10-19T10:03:40.600Z,94046.78
2022-10-19T10:08:58.238Z,94047.63
2022-10-19T10:14:20.802Z,94046.13
2022-10-19T10:19:29.342Z,94046.50
2022-10-19T10:24:34.637Z,94042.56
2022-10-19T10:29:41.518Z,94035.06
2022-10-19T10:35:00.809Z,94023.75
2022-10-19T10:40:06.107Z,94026.97
2022-10-19T10:45:25.665Z,94025.38
2022-10-19T10:50:36.909Z,94027.56
2022-10-19T10:55:40.960Z,94011.50
2022-10-19T11:00:46.216Z,94007.06
2022-10-19T11:06:09.441Z,93993.56
2022-10-19T11:11:18.566Z,93989.03
2022-10-19T11:16:32.859Z,93983.41
2022-10-19T11:22:04.657Z,93962.69
2022-10-19T11:27:18.942Z,93975.22
2022-10-19T11:32:34.948Z,93957.81
2022-10-19T11:38:20.088Z,93953.00
2022-10-19T11:43:27.590Z,93934.91
2022-10-19T11:48:59.979Z,93922.06
2022-10-19T11:54:22.222Z,93919.66
2022-10-19T12:00:04.003Z,93922.94
2022-10-19T12:05:35.926Z,93905.56
2022-10-19T12:11:03.540Z,93909.63
2022-10-19T12:16:10.057Z,93902.34
2022-10-19T12:21:46.341Z,93896.25
2022-10-19T12:26:52.458Z,93901.66
2022-10-19T12:32:00.045Z,93901.88
2022-10-19T12:37:10.337Z,93896.78
2022-10-19T12:42:28.515Z,93897.25
2022-10-19T12:47:33.220Z,93886.63
2022-10-19T12:52:40.403Z,93893.50
2022-10-19T12:57:49.873Z,93889.47
2022-10-19T13:03:25.061Z,93885.88
2022-10-19T13:08:41.743Z,93875.44
2022-10-19T13:13:57.734Z,93879.16
2022-10-19T13:19:24.646Z,93875.28
2022-10-19T13:24:28.730Z,93870.25
2022-10-19T13:29:40.856Z,93883.88
2022-10-19T13:34:44.855Z,93879.06
2022-10-19T13:39:49.632Z,93877.47
2022-10-19T13:44:54.040Z,93866.84
2022-10-19T13:50:15.841Z,93866.34
2022-10-19T13:55:22.381Z,93866.06
2022-10-19T14:00:30.801Z,93867.22
2022-10-19T14:06:13.058Z,93870.47
2022-10-19T14:11:23.494Z,93871.78
2022-10-19T14:16:27.532Z,93880.75
2022-10-19T14:21:34.292Z,93870.78
2022-10-19T14:26:38.369Z,93879.06
2022-10-19T14:31:43.058Z,93872.19
2022-10-19T14:36:49.606Z,93868.41
2022-10-19T14:41:56.643Z,93876.94
2022-10-19T14:47:02.313Z,93869.72
2022-10-19T14:52:06.350Z,93871.88
2022-10-19T14:57:25.325Z,93869.22
2022-10-19T15:02:32.142Z,93877.31
2022-10-19T15:07:42.745Z,93878.75
2022-10-19T15:12:46.156Z,93869.06
2022-10-19T15:17:57.303Z,93868.09
2022-10-19T15:23:02.152Z,93876.19
2022-10-19T15:28:38.987Z,93872.53
2022-10-19T15:34:00.215Z,93878.09
2022-10-19T15:39:18.578Z,93875.97
2022-10-19T15:44:34.446Z,93876.00
2022-10-19T15:49:43.491Z,93875.03
2022-10-19T15:54:52.056Z,93873.78
2022-10-19T15:59:57.169Z,93877.03
2022-10-19T16:05:00.216Z,93889.19
2022-10-19T16:10:03.998Z,93892.06
2022-10-19T16:15:07.839Z,93897.97
2022-10-19T16:20:17.612Z,93889.28
2022-10-19T16:25:21.237Z,93896.06
2022-10-19T16:30:25.268Z,93896.13
2022-10-19T16:35:28.866Z,93909.97
2022-10-19T16:40:32.907Z,93916.25
2022-10-19T16:45:36.266Z,93912.97
2022-10-19T16:50:39.998Z,93916.34
2022-10-19T16:55:43.685Z,93920.50
2022-10-19T17:00:46.948Z,93927.00
2022-10-19T17:05:50.341Z,93929.44
2022-10-19T17:10:53.278Z,93923.75
2022-10-19T17:15:56.701Z,93928.22
2022-10-19T17:21:05.273Z,93933.06
2022-10-19T17:26:09.207Z,93937.59
2022-10-19T17:31:14.406Z,93942.81
2022-10-19T17:36:23.092Z,93947.16
2022-10-19T17:41:27.424Z,93950.22
2022-10-19T17:46:34.240Z,93958.81
2022-10-19T17:51:38.410Z,93956.13
2022-10-19T17:56:42.004Z,93951.47
2022-10-19T18:01:45.216Z,93961.81
2022-10-19T18:06:48.441Z,93953.97
2022-10-19T18:11:51.475Z,93946.03
2022-10-19T18:16:55.521Z,93943.06
2022-10-19T18:21:58.836Z,93955.38
2022-10-19T18:27:02.597Z,93954.59
2022-10-19T18:37:14.611Z,93951.84
2022-10-19T18:42:18.273Z,93963.19
2022-10-19T18:47:21.785Z,93960.03
2022-10-19T18:52:24.767Z,93965.94
2022-10-19T18:57:31.640Z,93972.25
2022-10-19T19:02:46.297Z,93963.13
2022-10-19T19:07:51.296Z,93955.75
2022-10-19T19:12:54.499Z,93961.66
2022-10-19T19:17:58.049Z,93973.09
2022-10-19T19:23:01.713Z,93970.72
2022-10-19T19:28:05.821Z,93975.06
2022-10-19T19:33:09.910Z,93974.69
2022-10-19T19:38:15.350Z,93977.91
2022-10-19T19:43:20.550Z,93983.03
2022-10-19T19:48:24.377Z,93979.91
2022-10-19T19:53:28.190Z,93978.72
2022-10-19T19:58:31.233Z,93974.00
2022-10-19T20:03:34.653Z,93958.72
2022-10-19T20:08:39.645Z,93971.66
2022-10-19T20:13:46.058Z,93971.28
2022-10-19T20:18:52.984Z,93957.94
2022-10-19T20:23:57.261Z,93961.78
2022-10-19T20:29:03.048Z,93964.09
2022-10-19T20:34:12.609Z,93956.56
2022-10-19T20:39:16.305Z,93959.66
2022-10-19T20:44:20.041Z,93962.69
2022-10-19T20:49:23.843Z,93962.66
2022-10-19T20:54:27.837Z,93960.66
2022-10-19T20:59:33.280Z,93957.84
2022-10-19T21:04:37.436Z,93956.28
2022-10-19T21:09:40.689Z,93965.69
2022-10-19T21:14:44.545Z,93968.06
2022-10-19T21:19:48.122Z,93953.50
2022-10-19T21:24:51.248Z,93964.06
2022-10-19T21:29:55.102Z,93968.28
2022-10-19T21:34:58.659Z,93965.47
2022-10-19T21:40:02.311Z,93965.47
2022-10-19T21:45:25.720Z,93963.09
2022-10-19T21:50:28.981Z,93967.81
2022-10-19T21:55:36.998Z,93966.13
2022-10-19T22:00:40.242Z,93966.47
2022-10-19T22:05:52.031Z,93958.56
2022-10-19T22:10:55.104Z,93963.94
2022-10-19T22:16:04.045Z,93964.66
2022-10-19T22:21:14.095Z,93971.25
2022-10-19T22:26:19.948Z,93960.94
2022-10-19T22:31:24.554Z,93963.63
2022-10-19T22:36:27.619Z,93960.06
2022-10-19T22:42:26.773Z,93947.63
2022-10-19T22:48:46.665Z,93950.63
2022-10-19T22:54:08.563Z,93951.75
2022-10-19T22:59:12.246Z,93947.34
2022-10-19T23:04:15.210Z,93961.56
2022-10-19T23:09:18.114Z,93949.84
2022-10-19T23:14:21.506Z,93950.66
2022-10-19T23:19:24.486Z,93941.63
2022-10-19T23:24:28.434Z,93940.44
2022-10-19T23:29:31.503Z,93935.69
2022-10-19T23:39:43.117Z,93940.75
2022-10-19T23:44:46.689Z,93942.66
2022-10-19T23:49:49.935Z,93926.19
2022-10-19T23:54:53.890Z,93925.78
2022-10-19T23:59:56.874Z,93936.63
